Time,TemperatureF,DewpointF,PressureIn,WindDirection,WindDirectionDegrees,WindSpeedMPH,WindSpeedGustMPH,Humidity,HourlyPrecipIn,Conditions,Clouds,dailyrainin,SoftwareType,DateUTC
2013-06-14 00:00:00,60.4,53.5,29.40,NNW,334,5.0,5.0,78,0.00,,,0.00,Wunderground v.1.15,2013-06-14 04:00:00,
2013-06-14 00:10:00,59.9,53.0,29.40,NW,325,5.0,5.0,78,0.00,,,0.00,Wunderground v.1.15,2013-06-14 04:10:00,
2013-06-14 00:20:00,59.6,52.4,29.40,NNW,327,7.0,7.0,77,0.00,,,0.00,Wunderground v.1.15,2013-06-14 04:20:00,
2013-06-14 00:30:00,59.1,52.2,29.39,North,355,6.0,8.0,78,0.00,,,0.00,Wunderground v.1.15,2013-06-14 04:30:00,
2013-06-14 00:40:00,58.8,52.0,29.40,NW,325,8.0,10.0,78,0.00,,,0.00,Wunderground v.1.15,2013-06-14 04:40:00,
2013-06-14 00:50:00,58.7,52.2,29.40,NW,306,8.0,8.0,79,0.00,,,0.00,Wunderground v.1.15,2013-06-14 04:50:00,
2013-06-14 01:00:00,58.8,52.0,29.41,NNW,342,9.0,14.0,78,0.00,,,0.00,Wunderground v.1.15,2013-06-14 05:00:00,
2013-06-14 01:10:00,58.5,52.0,29.41,NW,326,8.0,18.0,79,0.00,,,0.00,Wunderground v.1.15,2013-06-14 05:10:00,
2013-06-14 01:20:00,58.3,51.8,29.41,NW,309,9.0,9.0,79,0.00,,,0.00,Wunderground v.1.15,2013-06-14 05:20:00,
2013-06-14 01:30:00,58.3,52.2,29.41,NW,315,11.0,18.0,80,0.00,,,0.00,Wunderground v.1.15,2013-06-14 05:30:00,
2013-06-14 01:40:00,58.3,52.2,29.41,NW,323,10.0,18.0,80,0.00,,,0.00,Wunderground v.1.15,2013-06-14 05:40:00,
2013-06-14 01:50:00,58.2,52.4,29.41,NW,315,10.0,10.0,81,0.00,,,0.00,Wunderground v.1.15,2013-06-14 05:50:00,
2013-06-14 02:00:00,58.0,52.2,29.41,NW,322,7.0,18.0,81,0.00,,,0.00,Wunderground v.1.15,2013-06-14 06:00:00,
2013-06-14 02:10:00,58.1,52.6,29.41,NNW,330,9.0,9.0,82,0.00,,,0.00,Wunderground v.1.15,2013-06-14 06:10:00,
2013-06-14 02:20:00,58.1,52.6,29.41,NW,319,10.0,18.0,82,0.00,,,0.00,Wunderground v.1.15,2013-06-14 06:20:00,
2013-06-14 02:30:00,58.1,52.6,29.41,NW,309,9.0,18.0,82,0.00,,,0.00,Wunderground v.1.15,2013-06-14 06:30:00,
2013-06-14 02:40:00,57.9,52.8,29.41,NW,306,9.0,9.0,83,0.00,,,0.00,Wunderground v.1.15,2013-06-14 06:40:00,
2013-06-14 02:50:00,57.9,52.8,29.41,NW,318,8.0,18.0,83,0.00,,,0.00,Wunderground v.1.15,2013-06-14 06:50:00,
2013-06-14 03:00:00,57.7,52.9,29.41,NNW,336,8.0,8.0,84,0.00,,,0.00,Wunderground v.1.15,2013-06-14 07:00:00,
2013-06-14 03:10:00,57.5,53.0,29.41,NW,309,8.0,18.0,85,0.00,,,0.00,Wunderground v.1.15,2013-06-14 07:10:00,
2013-06-14 03:20:00,57.4,53.2,29.40,NW,304,8.0,18.0,86,0.00,,,0.00,Wunderground v.1.15,2013-06-14 07:20:00,
2013-06-14 03:30:00,57.5,53.3,29.40,NW,307,9.0,18.0,86,0.00,,,0.00,Wunderground v.1.15,2013-06-14 07:30:00,
2013-06-14 03:40:00,57.5,53.3,29.40,NNW,348,8.0,8.0,86,0.00,,,0.00,Wunderground v.1.15,2013-06-14 07:40:00,
2013-06-14 03:50:00,57.5,53.3,29.40,NW,319,8.0,18.0,86,0.00,,,0.00,Wunderground v.1.15,2013-06-14 07:50:00,
2013-06-14 04:00:00,57.5,53.3,29.40,NW,316,6.0,18.0,86,0.00,,,0.00,Wunderground v.1.15,2013-06-14 08:00:00,
2013-06-14 04:10:00,57.3,53.1,29.40,NW,325,7.0,7.0,86,0.00,,,0.00,Wunderground v.1.15,2013-06-14 08:10:00,
2013-06-14 04:20:00,57.2,53.0,29.40,NNW,336,6.0,6.0,86,0.00,,,0.00,Wunderground v.1.15,2013-06-14 08:20:00,
2013-06-14 04:30:00,57.0,53.2,29.40,NNW,340,6.0,6.0,87,0.00,,,0.00,Wunderground v.1.15,2013-06-14 08:30:00,
2013-06-14 04:40:00,57.0,53.2,29.40,NW,324,6.0,6.0,87,0.00,,,0.00,Wunderground v.1.15,2013-06-14 08:40:00,
2013-06-14 04:50:00,56.9,53.1,29.40,NNW,333,6.0,18.0,87,0.00,,,0.00,Wunderground v.1.15,2013-06-14 08:50:00,
2013-06-14 05:00:00,56.8,53.0,29.40,NW,318,8.0,8.0,87,0.00,,,0.00,Wunderground v.1.15,2013-06-14 09:00:00,
2013-06-14 05:10:00,56.7,52.9,29.41,NW,304,7.0,18.0,87,0.00,,,0.00,Wunderground v.1.15,2013-06-14 09:10:00,
2013-06-14 05:20:00,56.6,52.8,29.41,NNW,333,7.0,7.0,87,0.00,,,0.00,Wunderground v.1.15,2013-06-14 09:20:00,
2013-06-14 05:30:00,56.6,52.8,29.42,NNW,338,7.0,7.0,87,0.00,,,0.00,Wunderground v.1.15,2013-06-14 09:30:00,
2013-06-14 05:40:00,56.6,52.8,29.42,NW,321,7.0,7.0,87,0.00,,,0.00,Wunderground v.1.15,2013-06-14 09:40:00,
2013-06-14 05:50:00,56.6,52.8,29.42,NW,321,7.0,7.0,87,0.00,,,0.00,Wunderground v.1.15,2013-06-14 09:50:00,
2013-06-14 06:00:00,56.6,52.5,29.42,NNW,348,6.0,6.0,86,0.00,,,0.00,Wunderground v.1.15,2013-06-14 10:00:00,
2013-06-14 06:10:00,56.2,52.1,29.42,NW,320,5.0,18.0,86,0.00,,,0.00,Wunderground v.1.15,2013-06-14 10:10:00,
2013-06-14 06:20:00,56.4,52.3,29.43,NW,318,5.0,18.0,86,0.00,,,0.00,Wunderground v.1.15,2013-06-14 10:20:00,
2013-06-14 06:30:00,56.7,52.2,29.44,NNW,346,6.0,6.0,85,0.00,,,0.00,Wunderground v.1.15,2013-06-14 10:30:00,
2013-06-14 06:40:00,57.0,52.2,29.44,NW,315,7.0,18.0,84,0.00,,,0.00,Wunderground v.1.15,2013-06-14 10:40:00,
2013-06-14 06:50:00,57.4,52.6,29.44,WNW,300,7.0,18.0,84,0.00,,,0.00,Wunderground v.1.15,2013-06-14 10:50:00,
2013-06-14 07:00:00,57.8,52.7,29.45,NNW,338,6.0,6.0,83,0.00,,,0.00,Wunderground v.1.15,2013-06-14 11:00:00,
2013-06-14 07:10:00,58.1,53.0,29.46,NNW,329,6.0,6.0,83,0.00,,,0.00,Wunderground v.1.15,2013-06-14 11:10:00,
2013-06-14 07:20:00,58.6,53.1,29.46,NW,314,6.0,18.0,82,0.00,,,0.00,Wunderground v.1.15,2013-06-14 11:20:00,
2013-06-14 07:30:00,59.0,53.2,29.47,NW,317,8.0,8.0,81,0.00,,,0.00,Wunderground v.1.15,2013-06-14 11:30:00,
2013-06-14 07:40:00,59.6,53.4,29.47,NW,324,6.0,18.0,80,0.00,,,0.00,Wunderground v.1.15,2013-06-14 11:40:00,
2013-06-14 07:50:00,60.2,53.7,29.48,NW,311,6.0,6.0,79,0.00,,,0.00,Wunderground v.1.15,2013-06-14 11:50:00,
2013-06-14 08:00:00,60.6,54.4,29.48,NNW,330,4.0,18.0,80,0.00,,,0.00,Wunderground v.1.15,2013-06-14 12:00:00,
2013-06-14 08:10:00,61.1,54.2,29.49,NNW,335,6.0,6.0,78,0.00,,,0.00,Wunderground v.1.15,2013-06-14 12:10:00,
2013-06-14 08:20:00,61.4,53.8,29.50,NNW,331,6.0,9.0,76,0.00,,,0.00,Wunderground v.1.15,2013-06-14 12:20:00,
2013-06-14 08:30:00,61.4,53.8,29.50,NW,316,7.0,7.0,76,0.00,,,0.00,Wunderground v.1.15,2013-06-14 12:30:00,
2013-06-14 08:40:00,61.4,53.0,29.50,NW,311,9.0,11.0,74,0.00,,,0.00,Wunderground v.1.15,2013-06-14 12:40:00,
2013-06-14 08:50:00,61.7,53.3,29.51,NW,321,9.0,9.0,74,0.00,,,0.00,Wunderground v.1.15,2013-06-14 12:50:00,
2013-06-14 09:00:00,62.0,52.9,29.51,North,350,9.0,9.0,72,0.00,,,0.00,Wunderground v.1.15,2013-06-14 13:00:00,
2013-06-14 09:10:00,62.3,52.8,29.52,NW,310,10.0,10.0,71,0.00,,,0.00,Wunderground v.1.15,2013-06-14 13:10:00,
2013-06-14 09:20:00,63.1,53.2,29.52,NW,317,7.0,17.0,70,0.00,,,0.00,Wunderground v.1.15,2013-06-14 13:20:00,
2013-06-14 09:30:00,63.2,52.1,29.52,NNW,336,9.0,9.0,67,0.00,,,0.00,Wunderground v.1.15,2013-06-14 13:30:00,
2013-06-14 09:40:00,63.4,52.7,29.53,WNW,299,9.0,17.0,68,0.00,,,0.00,Wunderground v.1.15,2013-06-14 13:40:00,
2013-06-14 09:50:00,63.6,52.4,29.53,NW,311,9.0,9.0,67,0.00,,,0.00,Wunderground v.1.15,2013-06-14 13:50:00,
2013-06-14 10:00:00,64.1,53.3,29.54,NW,326,9.0,9.0,68,0.00,,,0.00,Wunderground v.1.15,2013-06-14 14:00:00,
2013-06-14 10:10:00,64.3,52.3,29.54,North,5,9.0,17.0,65,0.00,,,0.00,Wunderground v.1.15,2013-06-14 14:10:00,
2013-06-14 10:20:00,64.5,52.9,29.54,NW,319,8.0,17.0,66,0.00,,,0.00,Wunderground v.1.15,2013-06-14 14:20:00,
2013-06-14 10:30:00,64.6,53.0,29.55,NW,319,9.0,17.0,66,0.00,,,0.00,Wunderground v.1.15,2013-06-14 14:30:00,
2013-06-14 10:40:00,64.7,53.1,29.55,NNW,340,10.0,10.0,66,0.00,,,0.00,Wunderground v.1.15,2013-06-14 14:40:00,
2013-06-14 10:50:00,64.9,52.8,29.55,NNW,340,10.0,17.0,65,0.00,,,0.00,Wunderground v.1.15,2013-06-14 14:50:00,
2013-06-14 11:00:00,65.3,54.5,29.55,North,349,8.0,17.0,68,0.00,,,0.00,Wunderground v.1.15,2013-06-14 15:00:00,
2013-06-14 11:10:00,65.3,53.2,29.55,WNW,288,8.0,17.0,65,0.00,,,0.00,Wunderground v.1.15,2013-06-14 15:10:00,
2013-06-14 11:20:00,65.4,52.9,29.56,NNW,342,10.0,17.0,64,0.00,,,0.00,Wunderground v.1.15,2013-06-14 15:20:00,
2013-06-14 11:30:00,65.9,54.6,29.56,NNW,327,9.0,17.0,67,0.00,,,0.00,Wunderground v.1.15,2013-06-14 15:30:00,
2013-06-14 11:40:00,66.7,55.4,29.56,NW,310,10.0,10.0,67,0.00,,,0.00,Wunderground v.1.15,2013-06-14 15:40:00,
2013-06-14 11:50:00,66.7,55.4,29.56,NW,311,10.0,17.0,67,0.00,,,0.00,Wunderground v.1.15,2013-06-14 15:50:00,
2013-06-14 12:00:00,66.5,54.8,29.57,NNW,346,10.0,13.0,66,0.00,,,0.00,Wunderground v.1.15,2013-06-14 16:00:00,
2013-06-14 12:10:00,66.4,53.0,29.57,North,355,12.0,12.0,62,0.00,,,0.00,Wunderground v.1.15,2013-06-14 16:10:00,
2013-06-14 12:20:00,67.0,54.8,29.57,NW,322,9.0,12.0,65,0.00,,,0.00,Wunderground v.1.15,2013-06-14 16:20:00,
2013-06-14 12:30:00,67.4,55.2,29.57,NW,304,9.0,9.0,65,0.00,,,0.00,Wunderground v.1.15,2013-06-14 16:30:00,
2013-06-14 12:40:00,67.2,53.3,29.57,WNW,303,10.0,12.0,61,0.00,,,0.00,Wunderground v.1.15,2013-06-14 16:40:00,
2013-06-14 12:50:00,67.1,54.1,29.57,NNW,338,10.0,11.0,63,0.00,,,0.00,Wunderground v.1.15,2013-06-14 16:50:00,
2013-06-14 13:00:00,67.3,53.8,29.58,NW,319,11.0,16.0,62,0.00,,,0.00,Wunderground v.1.15,2013-06-14 17:00:00,
2013-06-14 13:09:00,67.5,52.7,29.58,NNW,348,10.0,10.0,59,0.00,,,0.00,Wunderground v.1.15,2013-06-14 17:09:00,
2013-06-14 13:20:00,67.9,54.8,29.58,WNW,300,9.0,22.0,63,0.00,,,0.00,Wunderground v.1.15,2013-06-14 17:20:00,
2013-06-14 13:30:00,67.8,52.9,29.59,NW,320,10.0,10.0,59,0.00,,,0.00,Wunderground v.1.15,2013-06-14 17:30:00,
2013-06-14 13:40:00,67.6,54.6,29.60,West,267,8.0,22.0,63,0.00,,,0.00,Wunderground v.1.15,2013-06-14 17:40:00,
2013-06-14 13:50:00,67.8,53.4,29.60,NW,313,8.0,22.0,60,0.00,,,0.00,Wunderground v.1.15,2013-06-14 17:50:00,
2013-06-14 14:00:00,67.4,53.9,29.60,WNW,294,6.0,6.0,62,0.00,,,0.00,Wunderground v.1.15,2013-06-14 18:00:00,
2013-06-14 14:10:00,66.7,53.3,29.60,North,360,7.0,7.0,62,0.00,,,0.00,Wunderground v.1.15,2013-06-14 18:10:00,
2013-06-14 14:20:00,67.9,54.0,29.60,NNE,18,6.0,6.0,61,0.00,,,0.00,Wunderground v.1.15,2013-06-14 18:20:00,
2013-06-14 14:30:00,67.4,51.6,29.60,NW,305,8.0,22.0,57,0.00,,,0.00,Wunderground v.1.15,2013-06-14 18:30:00,
2013-06-14 14:40:00,67.2,54.2,29.60,NNW,346,6.0,6.0,63,0.00,,,0.00,Wunderground v.1.15,2013-06-14 18:40:00,
2013-06-14 14:50:00,69.0,54.5,29.60,WNW,300,6.0,22.0,60,0.00,,,0.00,Wunderground v.1.15,2013-06-14 18:50:00,
2013-06-14 15:00:00,68.4,54.0,29.60,NW,324,7.0,7.0,60,0.00,,,0.00,Wunderground v.1.15,2013-06-14 19:00:00,
2013-06-14 15:10:00,68.6,53.7,29.60,WNW,293,6.0,6.0,59,0.00,,,0.00,Wunderground v.1.15,2013-06-14 19:10:00,
2013-06-14 15:20:00,68.4,54.9,29.61,NNE,15,7.0,22.0,62,0.00,,,0.00,Wunderground v.1.15,2013-06-14 19:20:00,
2013-06-14 15:30:00,68.1,53.2,29.60,NNW,329,8.0,8.0,59,0.00,,,0.00,Wunderground v.1.15,2013-06-14 19:30:00,
2013-06-14 15:40:00,67.4,54.8,29.61,NNW,334,5.0,5.0,64,0.00,,,0.00,Wunderground v.1.15,2013-06-14 19:40:00,
2013-06-14 15:50:00,67.4,52.6,29.61,NNW,348,6.0,6.0,59,0.00,,,0.00,Wunderground v.1.15,2013-06-14 19:50:00,
2013-06-14 16:00:00,67.2,53.7,29.61,NNW,347,5.0,22.0,62,0.00,,,0.00,Wunderground v.1.15,2013-06-14 20:00:00,
2013-06-14 16:10:00,69.2,56.5,29.61,NW,319,5.0,5.0,64,0.00,,,0.00,Wunderground v.1.15,2013-06-14 20:10:00,
2013-06-14 16:20:00,69.6,53.7,29.61,NW,306,6.0,10.0,57,0.00,,,0.00,Wunderground v.1.15,2013-06-14 20:20:00,
2013-06-14 16:30:00,68.8,54.8,29.61,NW,317,6.0,7.0,61,0.00,,,0.00,Wunderground v.1.15,2013-06-14 20:30:00,
2013-06-14 16:40:00,68.3,53.9,29.61,North,355,3.0,3.0,60,0.00,,,0.00,Wunderground v.1.15,2013-06-14 20:40:00,
2013-06-14 16:50:00,67.6,52.3,29.61,NNE,16,4.0,4.0,58,0.00,,,0.00,Wunderground v.1.15,2013-06-14 20:50:00,
2013-06-14 17:00:00,68.8,55.2,29.61,North,355,3.0,3.0,62,0.00,,,0.00,Wunderground v.1.15,2013-06-14 21:00:00,
2013-06-14 17:10:00,67.6,53.2,29.62,NW,316,5.0,8.0,60,0.00,,,0.00,Wunderground v.1.15,2013-06-14 21:10:00,
2013-06-14 17:20:00,67.4,53.9,29.62,NE,41,3.0,3.0,62,0.00,,,0.00,Wunderground v.1.15,2013-06-14 21:20:00,
2013-06-14 17:30:00,66.8,53.8,29.61,NNE,31,2.0,2.0,63,0.00,,,0.00,Wunderground v.1.15,2013-06-14 21:30:00,
2013-06-14 17:40:00,67.3,55.1,29.61,NE,44,2.0,16.0,65,0.00,,,0.00,Wunderground v.1.15,2013-06-14 21:40:00,
2013-06-14 17:50:00,68.8,55.2,29.61,NNW,340,2.0,16.0,62,0.00,,,0.00,Wunderground v.1.15,2013-06-14 21:50:00,
2013-06-14 18:00:00,68.7,53.3,29.61,NNW,343,4.0,4.0,58,0.00,,,0.00,Wunderground v.1.15,2013-06-14 22:00:00,
2013-06-14 18:10:00,68.7,53.8,29.61,North,9,2.0,2.0,59,0.00,,,0.00,Wunderground v.1.15,2013-06-14 22:10:00,
2013-06-14 18:20:00,68.6,53.7,29.61,NNW,340,2.0,4.0,59,0.00,,,0.00,Wunderground v.1.15,2013-06-14 22:20:00,
2013-06-14 18:30:00,68.4,52.1,29.61,NNW,338,6.0,6.0,56,0.00,,,0.00,Wunderground v.1.15,2013-06-14 22:30:00,
2013-06-14 18:40:00,68.6,52.3,29.62,NW,322,4.0,4.0,56,0.00,,,0.00,Wunderground v.1.15,2013-06-14 22:40:00,
2013-06-14 18:50:00,68.6,53.7,29.62,NW,321,5.0,10.0,59,0.00,,,0.00,Wunderground v.1.15,2013-06-14 22:50:00,
2013-06-14 19:00:00,68.4,53.0,29.62,NNW,327,4.0,4.0,58,0.00,,,0.00,Wunderground v.1.15,2013-06-14 23:00:00,
2013-06-14 19:10:00,68.4,54.0,29.63,NW,317,2.0,2.0,60,0.00,,,0.00,Wunderground v.1.15,2013-06-14 23:10:00,
2013-06-14 19:20:00,68.1,53.7,29.63,NW,323,2.0,2.0,60,0.00,,,0.00,Wunderground v.1.15,2013-06-14 23:20:00,
2013-06-14 19:30:00,67.0,52.7,29.63,NW,321,2.0,11.0,60,0.00,,,0.00,Wunderground v.1.15,2013-06-14 23:30:00,
2013-06-14 19:40:00,66.3,52.4,29.64,North,355,3.0,3.0,61,0.00,,,0.00,Wunderground v.1.15,2013-06-14 23:40:00,
2013-06-14 19:50:00,65.8,52.9,29.64,NNW,340,1.0,1.0,63,0.00,,,0.00,Wunderground v.1.15,2013-06-14 23:50:00,
2013-06-14 20:00:00,65.2,53.6,29.64,NW,311,0.0,1.0,66,0.00,,,0.00,Wunderground v.1.15,2013-06-15 00:00:00,
2013-06-14 20:10:00,64.6,53.4,29.64,NNW,336,0.0,4.0,67,0.00,,,0.00,Wunderground v.1.15,2013-06-15 00:10:00,
2013-06-14 20:20:00,64.1,52.9,29.64,NNW,345,1.0,1.0,67,0.00,,,0.00,Wunderground v.1.15,2013-06-15 00:20:00,
2013-06-14 20:30:00,63.6,52.4,29.64,NW,325,1.0,4.0,67,0.00,,,0.00,Wunderground v.1.15,2013-06-15 00:30:00,
2013-06-14 20:40:00,63.0,52.3,29.64,NW,323,1.0,1.0,68,0.00,,,0.00,Wunderground v.1.15,2013-06-15 00:40:00,
2013-06-14 20:50:00,62.7,52.4,29.64,NW,323,1.0,1.0,69,0.00,,,0.00,Wunderground v.1.15,2013-06-15 00:50:00,
2013-06-14 21:00:00,62.0,52.9,29.64,NW,322,0.0,0.0,72,0.00,,,0.00,Wunderground v.1.15,2013-06-15 01:00:00,
2013-06-14 21:10:00,60.6,52.3,29.65,NW,322,0.0,12.0,74,0.00,,,0.00,Wunderground v.1.15,2013-06-15 01:10:00,
2013-06-14 21:20:00,59.9,52.0,29.65,NW,322,0.0,12.0,75,0.00,,,0.00,Wunderground v.1.15,2013-06-15 01:20:00,
2013-06-14 21:30:00,59.7,52.1,29.66,NW,322,0.0,12.0,76,0.00,,,0.00,Wunderground v.1.15,2013-06-15 01:30:00,
2013-06-14 21:40:00,59.4,52.2,29.66,NW,322,0.0,12.0,77,0.00,,,0.00,Wunderground v.1.15,2013-06-15 01:40:00,
2013-06-14 21:50:00,59.3,52.4,29.66,NW,322,0.0,12.0,78,0.00,,,0.00,Wunderground v.1.15,2013-06-15 01:50:00,
2013-06-14 22:00:00,58.6,52.1,29.66,NW,322,0.0,12.0,79,0.00,,,0.00,Wunderground v.1.15,2013-06-15 02:00:00,
2013-06-14 22:10:00,58.4,52.3,29.66,NW,322,0.0,12.0,80,0.00,,,0.00,Wunderground v.1.15,2013-06-15 02:10:00,
2013-06-14 22:20:00,58.1,52.3,29.67,NW,322,0.0,0.0,81,0.00,,,0.00,Wunderground v.1.15,2013-06-15 02:20:00,
2013-06-14 22:30:00,57.8,52.3,29.67,NW,306,1.0,4.0,82,0.00,,,0.00,Wunderground v.1.15,2013-06-15 02:30:00,
2013-06-14 22:40:00,57.8,52.3,29.68,NW,315,3.0,3.0,82,0.00,,,0.00,Wunderground v.1.15,2013-06-15 02:40:00,
2013-06-14 22:50:00,58.0,52.5,29.68,NW,317,2.0,2.0,82,0.00,,,0.00,Wunderground v.1.15,2013-06-15 02:50:00,
2013-06-14 23:00:00,57.7,52.2,29.68,NW,317,0.0,0.0,82,0.00,,,0.00,Wunderground v.1.15,2013-06-15 03:00:00,
2013-06-14 23:10:00,57.1,52.0,29.69,NW,317,0.0,0.0,83,0.00,,,0.00,Wunderground v.1.15,2013-06-15 03:10:00,
2013-06-14 23:20:00,56.6,51.8,29.69,NW,317,0.0,0.0,84,0.00,,,0.00,Wunderground v.1.15,2013-06-15 03:20:00,
2013-06-14 23:30:00,56.2,51.7,29.70,NW,317,0.0,0.0,85,0.00,,,0.00,Wunderground v.1.15,2013-06-15 03:30:00,
2013-06-14 23:40:00,56.2,52.1,29.70,NW,317,1.0,1.0,86,0.00,,,0.00,Wunderground v.1.15,2013-06-15 03:40:00,
2013-06-14 23:50:00,56.7,51.9,29.70,NW,317,0.0,0.0,84,0.00,,,0.00,Wunderground v.1.15,2013-06-15 03:50:00,